Time;durP1;ratioP1;P1;durP2;ratioP2;P2;SDS_P1;SDS_P2;PMS_P1;PMS_P2;Temp;Humidity;BMP_temperature;BMP_pressure;BME280_temperature;BME280_humidity;BME280_pressure;Samples;Min_cycle;Max_cycle;Signal;HPM_P1;HPM_P2
2022/06/03 00:02:44;;;;;;;4.25;2.50;;;;;;;23.74;48.73;99409.56;4972221;28;20076;-67
2022/06/03 00:05:23;;;;;;;4.38;2.80;;;;;;;23.74;48.55;99409.56;4922653;29;20201;-66
2022/06/03 00:08:06;;;;;;;5.70;2.78;;;;;;;23.73;48.71;99418.72;4956376;28;20031;-67
2022/06/03 00:11:01;;;;;;;3.22;2.80;;;;;;;23.74;48.73;99417.69;4956298;28;20039;-68
2022/06/03 00:13:27;;;;;;;3.90;2.58;;;;;;;23.72;48.52;99411.66;4956377;29;20127;-68
2022/06/03 00:16:01;;;;;;;2.50;2.20;;;;;;;23.72;48.94;99417.06;4955831;28;20114;-68
2022/06/03 00:18:48;;;;;;;3.70;2.30;;;;;;;23.73;48.91;99417.88;4956738;29;20391;-67
2022/06/03 00:21:46;;;;;;;4.40;2.55;;;;;;;23.73;48.78;99417.88;4955829;28;20118;-67
2022/06/03 00:24:32;;;;;;;4.45;3.00;;;;;;;23.71;48.95;99409.13;4955819;29;20035;-68
2022/06/03 00:27:16;;;;;;;3.63;2.40;;;;;;;23.71;48.87;99415.38;4955058;28;20415;-67
2022/06/03 00:29:41;;;;;;;2.97;2.38;;;;;;;23.72;48.55;99427.84;4955893;29;20106;-68
2022/06/03 00:32:25;;;;;;;5.53;2.47;;;;;;;23.73;48.67;99417.88;4956219;28;20480;-65
2022/06/03 00:35:12;;;;;;;4.70;2.63;;;;;;;23.71;48.81;99431.59;4956078;29;20031;-66
2022/06/03 00:37:47;;;;;;;3.15;2.15;;;;;;;23.70;48.65;99424.53;4955295;28;20035;-67
2022/06/03 00:40:27;;;;;;;3.83;2.25;;;;;;;23.70;48.88;99429.94;4955899;29;20523;-66
2022/06/03 00:42:55;;;;;;;2.80;2.50;;;;;;;23.69;48.72;99422.88;4955787;28;20454;-68
2022/06/03 00:45:59;;;;;;;3.35;2.33;;;;;;;23.70;48.88;99432.63;4955748;29;20411;-65
2022/06/03 00:48:58;;;;;;;4.15;2.50;;;;;;;23.68;48.92;99436.56;4954771;28;20039;-68
2022/06/03 00:51:50;;;;;;;3.75;2.78;;;;;;;23.66;48.72;99434.09;4955643;28;20170;-67
2022/06/03 00:54:21;;;;;;;3.65;2.88;;;;;;;23.66;49.05;99438.66;4955312;29;20034;-68
2022/06/03 00:56:54;;;;;;;;;;;;;;;23.61;48.90;99431.16;4955570;28;20035;-66
2022/06/03 00:59:44;;;;;;;4.72;3.28;;;;;;;23.62;49.08;99438.25;4955353;29;19925;-66
2022/06/03 01:02:27;;;;;;;3.60;2.35;;;;;;;23.62;49.07;99443.63;4955049;28;20031;-67
2022/06/03 01:05:02;;;;;;;3.58;2.22;;;;;;;23.62;49.03;99441.78;4955476;29;20039;-67
2022/06/03 01:07:56;;;;;;;4.13;3.08;;;;;;;23.62;48.90;99439.09;4953544;28;20035;-68
2022/06/03 01:10:31;;;;;;;6.00;3.40;;;;;;;23.62;48.96;99432.84;4955074;29;20041;-68
2022/06/03 01:13:21;;;;;;;8.35;3.10;;;;;;;23.62;48.92;99433.69;4954928;29;20114;-67
2022/06/03 01:16:16;;;;;;;2.63;2.10;;;;;;;23.61;49.13;99425.78;4955395;28;20035;-65
2022/06/03 01:19:10;;;;;;;4.43;2.78;;;;;;;23.60;48.80;99429.53;4954950;29;20078;-68
2022/06/03 01:21:55;;;;;;;4.10;2.60;;;;;;;23.58;49.04;99429.72;4955103;28;20138;-65
2022/06/03 01:24:39;;;;;;;8.57;2.78;;;;;;;23.60;49.07;99426.84;4954589;29;20486;-66
2022/06/03 01:27:23;;;;;;;5.25;2.83;;;;;;;23.60;48.84;99414.16;4954512;28;20066;-68
2022/06/03 01:29:58;;;;;;;4.90;3.00;;;;;;;23.60;48.60;99407.94;4954730;29;20043;-69
2022/06/03 01:32:55;;;;;;;5.03;2.58;;;;;;;23.60;48.90;99418.75;4954995;28;20399;-68
2022/06/03 01:35:44;;;;;;;4.70;3.03;;;;;;;23.61;48.72;99417.66;4954476;29;20557;-66
2022/06/03 01:38:47;;;;;;;4.03;2.65;;;;;;;23.60;48.75;99407.94;4954450;29;20362;-66
2022/06/03 01:41:41;;;;;;;4.88;3.25;;;;;;;23.59;48.95;99400.88;4955380;28;20074;-66
2022/06/03 01:44:18;;;;;;;3.17;2.45;;;;;;;23.59;48.85;99395.47;4954560;29;20065;-68
2022/06/03 01:47:26;;;;;;;5.32;3.22;;;;;;;23.60;48.96;99397.13;4954789;28;20031;-66
2022/06/03 01:50:00;;;;;;;6.05;3.15;;;;;;;23.60;48.64;99402.53;4906017;29;20042;-68
2022/06/03 01:52:44;;;;;;;3.63;2.50;;;;;;;23.61;48.96;99404.16;4954913;28;20039;-66
2022/06/03 01:55:24;;;;;;;3.67;2.50;;;;;;;23.61;48.81;99409.56;4954718;29;20058;-67
2022/06/03 01:58:28;;;;;;;3.35;2.33;;;;;;;23.62;48.79;99416.63;4954140;28;20023;-67
2022/06/03 02:01:32;;;;;;;6.90;3.35;;;;;;;23.62;49.02;99400.44;4960969;28;20039;-69
2022/06/03 02:04:07;;;;;;;4.35;2.70;;;;;;;23.63;48.62;99399.38;4958211;29;20046;-66
2022/06/03 02:07:23;;;;;;;4.70;2.83;;;;;;;23.63;48.95;99399.38;4960583;28;20491;-68
2022/06/03 02:10:00;;;;;;;3.45;2.67;;;;;;;23.62;49.13;99395.88;4920477;29;20032;-68
2022/06/03 02:12:34;;;;;;;5.57;2.60;;;;;;;23.63;48.57;99396.69;4959855;28;20043;-68
2022/06/03 02:15:22;;;;;;;6.30;3.05;;;;;;;23.65;48.75;99399.19;4960900;29;20550;-68
2022/06/03 02:18:19;;;;;;;3.42;2.58;;;;;;;23.62;48.95;99395.88;4960697;28;20031;-68
2022/06/03 02:21:08;;;;;;;5.55;2.60;;;;;;;23.63;48.90;99391.28;4961406;28;20035;-68
2022/06/03 02:23:54;;;;;;;3.33;2.22;;;;;;;23.64;49.22;99389.44;4961435;28;20027;-68
2022/06/03 02:26:22;;;;;;;3.65;3.03;;;;;;;23.63;49.03;99388.59;4960530;28;20035;-67
2022/06/03 02:32:46;;;;;;;5.90;2.60;;;;;;;23.64;49.24;99387.53;4960953;28;20042;-68
2022/06/03 02:35:20;;;;;;;5.18;2.55;;;;;;;23.70;49.15;99386.72;4960112;29;20509;-65
2022/06/03 02:37:57;;;;;;;6.05;2.58;;;;;;;23.76;48.99;99385.84;4960563;28;20047;-66
2022/06/03 02:40:41;;;;;;;5.50;3.47;;;;;;;23.80;48.98;99385.44;4960817;29;20474;-68
2022/06/03 02:43:45;;;;;;;4.97;2.45;;;;;;;23.82;49.30;99383.34;4960469;29;20043;-67
2022/06/03 02:46:39;;;;;;;5.70;2.78;;;;;;;23.84;49.13;99387.50;4882142;29;20099;-66
2022/06/03 02:49:23;;;;;;;4.35;2.40;;;;;;;23.86;48.85;99374.63;4882578;29;20044;-67
2022/06/03 02:52:00;;;;;;;7.35;3.08;;;;;;;23.88;48.94;99372.53;4943890;28;20035;-67
2022/06/03 02:54:33;;;;;;;3.88;2.55;;;;;;;23.92;48.76;99375.63;4960256;29;20117;-67
2022/06/03 02:57:14;;;;;;;3.35;2.55;;;;;;;23.96;48.82;99374.19;4960308;28;20454;-67
2022/06/03 02:59:51;;;;;;;3.78;2.42;;;;;;;24.01;48.74;99382.50;4960362;28;20043;-67
2022/06/03 03:02:33;;;;;;;4.55;2.60;;;;;;;24.06;48.69;99381.88;4959928;28;20176;-67
2022/06/03 03:05:35;;;;;;;3.03;2.22;;;;;;;24.12;48.59;99378.28;4960003;29;20067;-66
2022/06/03 03:08:19;;;;;;;7.18;3.58;;;;;;;24.20;48.49;99377.22;4960521;28;20038;-67
2022/06/03 03:11:06;;;;;;;3.38;2.47;;;;;;;24.34;48.53;99381.53;4958411;28;20045;-66
2022/06/03 03:14:25;;;;;;;5.32;2.72;;;;;;;24.51;48.06;99381.88;4957101;29;20043;-67
2022/06/03 03:17:02;;;;;;;2.80;2.42;;;;;;;24.71;47.57;99380.13;4916671;29;20488;-66
2022/06/03 03:19:45;;;;;;;3.20;2.65;;;;;;;24.98;46.96;99376.19;4951677;29;20047;-66
2022/06/03 03:22:29;;;;;;;4.93;2.20;;;;;;;25.29;46.43;99379.09;4957438;28;20475;-68
2022/06/03 03:25:25;;;;;;;3.90;2.50;;;;;;;25.55;45.72;99380.72;4956850;29;20427;-68
2022/06/03 03:28:22;;;;;;;3.00;2.33;;;;;;;25.75;45.17;99379.72;4957110;28;20427;-66
2022/06/03 03:31:20;;;;;;;3.75;2.47;;;;;;;25.80;45.28;99381.75;4957053;28;20028;-68
2022/06/03 03:34:10;;;;;;;6.55;2.67;;;;;;;25.73;45.35;99374.50;4927084;29;20474;-65
2022/06/03 03:37:04;;;;;;;8.13;2.13;;;;;;;25.69;45.56;99376.03;4937976;29;20028;-66
2022/06/03 03:39:44;;;;;;;4.47;2.63;;;;;;;25.66;45.38;99372.94;4937544;29;20038;-68
2022/06/03 03:42:31;;;;;;;5.40;2.20;;;;;;;25.67;45.44;99374.56;4937757;29;20053;-69
2022/06/03 03:45:11;;;;;;;4.35;2.55;;;;;;;25.65;45.52;99371.28;4937596;29;20063;-68
2022/06/03 03:48:14;;;;;;;3.75;2.30;;;;;;;25.73;45.42;99360.13;4937273;29;20506;-66
2022/06/03 03:51:00;;;;;;;2.58;2.08;;;;;;;25.86;45.00;99367.31;4937841;29;20035;-67
2022/06/03 03:53:31;;;;;;;3.42;2.00;;;;;;;25.93;44.72;99362.63;4937334;29;20043;-66
2022/06/03 03:56:14;;;;;;;;;;;;;;;25.87;44.99;99366.25;4937665;29;20062;-67
2022/06/03 03:59:07;;;;;;;2.33;1.80;;;;;;;25.85;45.12;99357.50;4937055;29;19915;-65
2022/06/03 04:02:10;;;;;;;3.30;2.10;;;;;;;25.77;45.14;99357.81;4937442;29;20051;-65
2022/06/03 04:05:03;;;;;;;3.17;2.15;;;;;;;25.69;45.04;99348.09;4937355;29;20479;-66
2022/06/03 04:08:05;;;;;;;3.38;1.95;;;;;;;25.62;45.19;99345.44;4937257;29;20039;-66
2022/06/03 04:11:28;;;;;;;3.90;2.17;;;;;;;25.56;45.54;99341.75;4937315;29;20384;-67
2022/06/03 04:14:11;;;;;;;3.92;2.50;;;;;;;25.56;45.48;99324.69;4884603;29;20111;-67
2022/06/03 04:17:14;;;;;;;4.70;2.05;;;;;;;25.53;45.64;99323.25;4896895;29;20040;-67
2022/06/03 04:19:45;;;;;;;6.03;2.25;;;;;;;25.51;45.54;99329.94;4953892;29;20419;-66
2022/06/03 04:22:29;;;;;;;3.00;1.90;;;;;;;25.51;45.24;99335.38;4955138;28;20043;-66
2022/06/03 04:25:13;;;;;;;5.25;2.28;;;;;;;25.55;45.16;99331.16;4955806;29;20094;-65
2022/06/03 04:28:23;;;;;;;3.50;1.95;;;;;;;25.65;45.24;99331.47;4955946;28;20391;-66
2022/06/03 04:31:03;;;;;;;3.90;2.13;;;;;;;25.79;45.02;99325.88;4940185;28;20046;-68
2022/06/03 04:33:41;;;;;;;3.72;2.00;;;;;;;25.90;44.82;99320.53;4955539;29;20043;-68
2022/06/03 04:36:44;;;;;;;3.80;2.30;;;;;;;26.15;44.57;99319.63;4955711;28;20477;-67
2022/06/03 04:39:56;;;;;;;3.20;2.08;;;;;;;26.42;44.12;99319.25;4955762;29;20031;-69
2022/06/03 04:42:30;;;;;;;3.45;2.20;;;;;;;26.61;43.64;99316.50;4945044;28;20135;-67
2022/06/03 04:45:33;;;;;;;5.75;2.28;;;;;;;26.75;43.33;99315.22;4955517;29;20032;-69
2022/06/03 04:48:38;;;;;;;2.60;2.05;;;;;;;26.86;43.15;99293.78;4955979;29;20113;-67
2022/06/03 04:51:09;;;;;;;3.38;2.03;;;;;;;26.96;42.97;99277.75;4955327;28;20028;-66
2022/06/03 04:54:01;;;;;;;3.75;2.20;;;;;;;27.07;42.90;99274.22;4955448;29;20043;-67
2022/06/03 04:56:32;;;;;;;3.67;2.17;;;;;;;27.15;42.53;99270.31;4954985;28;20438;-67
2022/06/03 04:59:31;;;;;;;3.05;1.75;;;;;;;27.20;42.35;99270.44;4955671;29;20043;-68
2022/06/03 05:02:14;;;;;;;4.00;1.98;;;;;;;27.21;42.51;99263.13;4955356;28;20086;-66
2022/06/03 05:05:14;;;;;;;3.58;1.83;;;;;;;27.19;42.38;99252.50;4955036;29;20066;-69
2022/06/03 05:08:30;;;;;;;4.72;2.60;;;;;;;27.23;42.39;99248.22;4955332;28;20035;-66
2022/06/03 05:11:04;;;;;;;4.45;2.20;;;;;;;27.32;42.33;99264.19;4912499;28;20053;-68
2022/06/03 05:13:56;;;;;;;3.40;1.80;;;;;;;27.34;42.26;99264.75;4955163;29;20047;-67
2022/06/03 05:16:46;;;;;;;3.00;2.35;;;;;;;27.37;42.28;99266.97;4925609;28;20146;-66
2022/06/03 05:19:11;;;;;;;3.08;1.92;;;;;;;27.39;42.30;99259.41;4955170;29;20090;-66
2022/06/03 05:21:37;;;;;;;2.60;2.10;;;;;;;27.40;42.00;99271.94;4954794;28;20490;-67
2022/06/03 05:24:20;;;;;;;3.42;1.90;;;;;;;27.39;41.97;99262.97;4954684;29;20183;-66
2022/06/03 05:26:58;;;;;;;5.18;1.88;;;;;;;27.39;42.08;99267.56;4955021;28;20059;-66
2022/06/03 05:29:26;;;;;;;3.20;2.20;;;;;;;27.38;42.32;99269.47;4954860;29;20043;-68
2022/06/03 05:32:19;;;;;;;5.30;2.35;;;;;;;27.36;42.40;99266.16;4954986;28;20038;-67
2022/06/03 05:35:36;;;;;;;5.05;2.00;;;;;;;27.32;42.60;99278.56;4954329;28;20043;-66
2022/06/03 05:38:12;;;;;;;7.15;2.40;;;;;;;27.19;42.62;99290.53;4876809;29;20033;-67
2022/06/03 05:40:49;;;;;;;4.10;2.30;;;;;;;27.10;42.70;99290.03;4876796;29;20037;-69
2022/06/03 05:43:14;;;;;;;3.25;1.88;;;;;;;27.04;43.03;99298.31;4924967;29;20198;-67
2022/06/03 05:46:18;;;;;;;2.35;1.88;;;;;;;26.96;43.32;99310.34;4954681;28;20125;-67
2022/06/03 05:49:05;;;;;;;3.38;2.40;;;;;;;26.87;43.42;99309.00;4954717;29;20039;-69
2022/06/03 05:51:47;;;;;;;2.85;2.50;;;;;;;26.79;43.38;99315.59;4954290;28;20538;-67
2022/06/03 05:54:33;;;;;;;5.90;2.92;;;;;;;26.78;43.77;99317.47;4954703;29;20039;-68
2022/06/03 05:57:17;;;;;;;7.43;2.80;;;;;;;26.74;43.79;99313.56;4940917;28;20043;-66
2022/06/03 06:00:00;;;;;;;4.07;2.25;;;;;;;26.68;43.78;99306.38;4954679;29;20558;-66
2022/06/03 06:02:40;;;;;;;3.90;2.63;;;;;;;26.60;43.85;99314.84;4953878;28;20146;-68
2022/06/03 06:05:30;;;;;;;3.97;2.15;;;;;;;26.51;44.06;99317.03;4954577;29;20043;-67
2022/06/03 06:08:07;;;;;;;5.03;2.72;;;;;;;26.46;44.26;99314.22;4954158;28;20031;-67
2022/06/03 06:10:39;;;;;;;3.25;2.28;;;;;;;26.42;44.14;99307.59;4954144;28;20039;-67
2022/06/03 06:13:27;;;;;;;6.10;2.30;;;;;;;26.37;44.24;99307.44;4954625;29;20062;-66
2022/06/03 06:16:06;;;;;;;6.53;2.67;;;;;;;26.34;44.38;99295.19;4954787;28;20130;-67
2022/06/03 06:18:42;;;;;;;3.13;2.50;;;;;;;26.29;44.39;99289.63;4954196;29;20031;-66
2022/06/03 06:21:26;;;;;;;4.88;3.15;;;;;;;26.27;44.58;99280.88;4954414;28;20047;-67
2022/06/03 06:24:33;;;;;;;5.30;2.78;;;;;;;26.25;44.48;99274.88;4954157;29;20039;-66
2022/06/03 06:27:16;;;;;;;4.10;3.00;;;;;;;26.24;44.40;99278.66;4876481;29;20419;-66
2022/06/03 06:30:06;;;;;;;5.45;2.90;;;;;;;26.23;44.64;99287.84;4860928;29;20397;-67
2022/06/03 06:32:53;;;;;;;3.92;3.13;;;;;;;26.18;44.74;99285.78;4934335;29;20047;-67
2022/06/03 06:35:37;;;;;;;4.53;3.10;;;;;;;26.14;44.73;99285.44;4954173;29;20035;-66
2022/06/03 06:38:11;;;;;;;6.25;3.05;;;;;;;26.11;44.59;99285.88;4954644;29;20089;-67
2022/06/03 06:40:58;;;;;;;5.05;3.00;;;;;;;26.08;44.68;99294.47;4954112;28;20414;-66
2022/06/03 06:43:42;;;;;;;9.40;5.85;;;;;;;26.04;45.33;99285.94;4954318;29;20453;-67
2022/06/03 06:46:20;;;;;;;7.53;3.28;;;;;;;26.00;45.17;99283.94;4955377;28;20558;-66
2022/06/03 06:48:59;;;;;;;8.73;4.47;;;;;;;25.97;45.55;99295.22;4957894;29;20043;-66
2022/06/03 06:51:47;;;;;;;8.48;4.38;;;;;;;25.92;45.74;99328.44;4957294;28;20043;-67
2022/06/03 06:54:44;;;;;;;8.95;4.18;;;;;;;25.88;45.71;99341.63;4957983;29;20490;-66
2022/06/03 06:57:21;;;;;;;5.55;3.97;;;;;;;25.84;45.87;99353.16;4956559;28;20051;-66
2022/06/03 06:59:54;;;;;;;5.95;3.53;;;;;;;25.82;45.82;99357.97;4957669;29;20047;-66
2022/06/03 07:02:43;;;;;;;4.97;3.47;;;;;;;25.78;46.04;99363.00;4957063;28;20157;-66
2022/06/03 07:05:18;;;;;;;3.85;3.00;;;;;;;25.73;46.14;99354.72;4957650;29;20070;-66
2022/06/03 07:07:44;;;;;;;4.25;3.72;;;;;;;25.69;46.17;99350.78;4957319;28;20039;-67
2022/06/03 07:10:31;;;;;;;6.55;3.53;;;;;;;25.62;46.33;99344.63;4957571;29;20183;-66
2022/06/03 07:13:09;;;;;;;5.47;3.22;;;;;;;25.55;46.44;99342.00;4957012;29;20039;-68
2022/06/03 07:15:49;;;;;;;3.67;2.88;;;;;;;25.50;46.53;99339.97;4957253;28;20043;-67
2022/06/03 07:21:57;;;;;;;5.75;3.15;;;;;;;25.40;46.90;99316.06;4957562;28;20054;-67
2022/06/03 07:24:52;;;;;;;4.30;2.92;;;;;;;25.35;46.71;99304.25;4956621;29;20062;-67
2022/06/03 07:27:28;;;;;;;5.72;2.92;;;;;;;25.32;46.79;99302.00;4957116;28;20384;-67
2022/06/03 07:30:00;;;;;;;5.45;3.17;;;;;;;25.33;46.56;99296.34;4957234;29;20043;-67
2022/06/03 07:32:32;;;;;;;4.13;2.63;;;;;;;25.33;46.53;99300.94;4955405;28;20147;-67
2022/06/03 07:35:22;;;;;;;3.25;2.70;;;;;;;25.34;46.64;99298.00;4956525;29;20154;-65
2022/06/03 07:38:15;;;;;;;5.25;2.22;;;;;;;25.34;46.56;99306.13;4956532;28;20035;-67
2022/06/03 07:41:06;;;;;;;4.32;2.45;;;;;;;25.36;46.65;99305.91;4956877;28;20057;-66
2022/06/03 07:43:55;;;;;;;4.20;2.70;;;;;;;25.37;46.64;99308.38;4922550;29;20039;-69
2022/06/03 07:46:26;;;;;;;3.30;2.65;;;;;;;25.38;46.58;99311.91;4956740;28;20137;-67
2022/06/03 07:48:52;;;;;;;3.53;2.40;;;;;;;25.40;46.79;99307.94;4956760;29;20090;-67
2022/06/03 07:51:33;;;;;;;4.10;2.60;;;;;;;25.42;46.78;99308.59;4956720;28;20035;-68
2022/06/03 07:54:04;;;;;;;4.63;2.55;;;;;;;25.42;46.62;99308.59;4956254;29;20035;-66
2022/06/03 07:56:32;;;;;;;2.97;2.65;;;;;;;25.43;46.78;99306.69;4956248;28;20039;-68
2022/06/03 07:59:01;;;;;;;7.03;2.97;;;;;;;25.44;46.92;99303.75;4940133;29;20442;-68
2022/06/03 08:01:30;;;;;;;3.95;2.55;;;;;;;25.45;46.65;99307.28;4956232;28;20049;-67
2022/06/03 08:03:56;;;;;;;4.63;2.33;;;;;;;25.47;46.65;99310.63;4955984;29;20059;-68
2022/06/03 08:10:56;;;;;;;4.82;2.67;;;;;;;25.53;46.15;99319.72;4956145;28;20045;-67
2022/06/03 08:12:00;;;;;;;5.30;2.85;;;;;;;25.56;46.41;99314.66;4956505;28;20093;-67
2022/06/03 08:14:27;;;;;;;4.97;2.53;;;;;;;25.59;46.51;99307.97;4956720;29;20039;-67
2022/06/03 08:16:54;;;;;;;4.93;2.95;;;;;;;25.59;46.59;99313.38;4955784;28;20557;-67
2022/06/03 08:19:27;;;;;;;3.03;2.42;;;;;;;25.58;46.65;99307.16;4956319;29;20070;-67
2022/06/03 08:21:58;;;;;;;4.50;2.50;;;;;;;25.61;46.49;99305.06;4956608;28;20042;-67
2022/06/03 08:24:30;;;;;;;7.10;2.78;;;;;;;25.62;46.23;99314.84;4955757;29;20031;-66
2022/06/03 08:27:10;;;;;;;3.25;2.20;;;;;;;25.61;46.01;99316.69;4955935;28;20035;-67
2022/06/03 08:29:48;;;;;;;5.03;2.65;;;;;;;25.59;46.43;99316.94;4955776;29;20453;-68
2022/06/03 08:32:21;;;;;;;3.45;2.45;;;;;;;25.60;46.46;99312.34;4955866;28;20045;-68
2022/06/03 08:34:52;;;;;;;4.78;2.28;;;;;;;25.63;46.12;99321.91;4955342;29;20047;-66
2022/06/03 08:37:27;;;;;;;5.70;2.92;;;;;;;25.65;46.43;99317.91;4955820;28;20031;-67
2022/06/03 08:39:58;;;;;;;4.00;2.60;;;;;;;25.68;46.15;99324.75;4955584;29;20085;-67
2022/06/03 08:42:43;;;;;;;5.32;2.63;;;;;;;25.71;45.83;99327.03;4955531;28;20042;-66
2022/06/03 08:45:15;;;;;;;3.17;2.45;;;;;;;25.72;45.89;99325.97;4955221;29;20513;-67
2022/06/03 08:47:54;;;;;;;4.28;2.35;;;;;;;25.73;45.83;99333.03;4955657;28;20062;-65
2022/06/03 08:51:00;;;;;;;3.55;2.33;;;;;;;25.71;46.06;99335.16;4955713;29;20035;-65
2022/06/03 08:54:06;;;;;;;3.60;2.42;;;;;;;25.68;45.96;99346.44;4944727;29;20106;-66
2022/06/03 08:56:35;;;;;;;4.30;2.40;;;;;;;25.67;45.89;99345.63;4955495;28;20046;-65
2022/06/03 08:59:05;;;;;;;3.50;2.53;;;;;;;25.71;45.98;99351.41;4955498;29;20597;-64
2022/06/03 09:02:06;;;;;;;3.97;2.80;;;;;;;25.74;45.88;99351.78;4954956;28;20130;-66
2022/06/03 09:04:40;;;;;;;2.90;2.28;;;;;;;25.71;46.00;99345.97;4945088;28;20050;-65
2022/06/03 09:07:29;;;;;;;4.47;2.42;;;;;;;25.74;46.29;99357.19;4955108;28;20059;-66
2022/06/03 09:10:01;;;;;;;4.72;2.50;;;;;;;25.76;46.41;99359.69;4954607;28;20035;-66
2022/06/03 09:12:33;;;;;;;4.97;2.70;;;;;;;25.74;46.27;99359.91;4954550;28;20086;-64
2022/06/03 09:15:11;;;;;;;3.42;2.42;;;;;;;25.73;46.41;99362.84;4955068;29;20069;-66
2022/06/03 09:18:02;;;;;;;4.47;2.60;;;;;;;25.69;46.51;99364.34;4954879;28;20027;-67
2022/06/03 09:20:45;;;;;;;4.00;2.72;;;;;;;25.64;46.70;99367.72;4955250;29;20031;-67
2022/06/03 09:23:16;;;;;;;11.23;3.88;;;;;;;25.59;46.54;99365.69;4972179;28;20027;-66
2022/06/03 09:25:47;;;;;;;4.05;2.90;;;;;;;25.56;46.34;99358.00;4959234;28;20130;-68
2022/06/03 09:28:17;;;;;;;5.05;2.88;;;;;;;25.52;46.68;99362.22;4954864;29;20059;-68
2022/06/03 09:30:45;;;;;;;7.87;3.57;;;;;;;25.51;46.61;99362.44;4954951;28;20035;-67
2022/06/03 09:33:14;;;;;;;3.80;3.10;;;;;;;25.48;46.69;99368.31;4954849;29;20679;-70
2022/06/03 09:35:44;;;;;;;4.90;4.00;;;;;;;25.46;46.84;99375.81;4954419;28;20451;-68
2022/06/03 09:38:11;;;;;;;5.28;3.45;;;;;;;25.39;46.81;99370.44;4954946;29;20479;-65
2022/06/03 09:40:45;;;;;;;3.50;2.75;;;;;;;25.40;46.62;99377.50;4954788;28;20090;-67
2022/06/03 09:43:28;;;;;;;3.25;2.88;;;;;;;25.38;46.79;99374.19;4954776;29;20517;-66
2022/06/03 09:45:56;;;;;;;4.07;2.58;;;;;;;25.37;46.82;99391.50;4957486;28;20038;-66
2022/06/03 09:48:27;;;;;;;4.05;2.63;;;;;;;25.36;46.82;99379.03;4955240;29;20118;-66
2022/06/03 09:51:00;;;;;;;;;;;;;;;25.26;46.86;99388.47;4954312;28;20058;-65
2022/06/03 09:53:30;;;;;;;4.07;3.22;;;;;;;25.28;46.81;99389.06;4952647;28;20041;-67
2022/06/03 09:56:04;;;;;;;4.13;2.95;;;;;;;25.29;46.84;99392.63;4954089;28;20399;-67
2022/06/03 09:58:33;;;;;;;4.32;3.17;;;;;;;25.28;46.78;99389.06;4954151;29;20031;-67
2022/06/03 10:01:00;;;;;;;4.78;3.50;;;;;;;25.27;47.01;99395.53;4954226;28;20130;-67
2022/06/03 10:03:27;;;;;;;5.13;3.80;;;;;;;25.25;47.02;99394.94;4953940;28;20058;-67
2022/06/03 10:05:57;;;;;;;7.22;4.20;;;;;;;25.27;47.11;99394.72;4954319;28;20043;-66
2022/06/03 10:08:28;;;;;;;5.07;3.70;;;;;;;25.24;46.92;99382.44;4954201;28;20028;-68
2022/06/03 10:13:42;;;;;;;5.18;3.78;;;;;;;25.25;47.20;99388.69;4954783;28;20069;-66
2022/06/03 10:16:10;;;;;;;4.63;3.78;;;;;;;25.25;47.21;99377.88;4952953;28;20063;-66
2022/06/03 10:18:49;;;;;;;4.85;3.92;;;;;;;25.23;46.76;99369.94;4961415;28;20066;-66
2022/06/03 10:21:14;;;;;;;6.43;4.13;;;;;;;25.23;47.02;99372.66;4956228;28;20043;-66
2022/06/03 10:23:52;;;;;;;5.45;4.10;;;;;;;25.24;47.00;99362.66;4964765;28;20063;-67
2022/06/03 10:26:24;;;;;;;4.00;3.40;;;;;;;25.23;46.78;99367.25;4956847;28;20105;-67
2022/06/03 10:28:52;;;;;;;6.35;4.47;;;;;;;25.23;47.02;99367.25;4961281;28;20129;-67
2022/06/03 10:31:21;;;;;;;5.22;4.13;;;;;;;25.22;46.84;99368.28;4967168;28;20062;-67
2022/06/03 10:33:58;;;;;;;6.72;4.15;;;;;;;25.22;46.88;99368.28;4958871;28;20071;-68
2022/06/03 10:36:29;;;;;;;4.40;3.47;;;;;;;25.20;46.88;99378.53;4956604;28;20058;-66
2022/06/03 10:38:54;;;;;;;5.50;4.20;;;;;;;25.20;46.84;99383.94;4957301;28;20034;-67
2022/06/03 10:41:31;;;;;;;10.57;4.30;;;;;;;25.20;46.96;99381.25;4957915;28;20090;-67
